sensor_id;sensor_type;location;lat;lon;timestamp;temperature;humidity
67974;DHT22;54756;51.140;6.952;2023-06-05T00:01:38;20.70;8.20
67974;DHT22;54756;51.140;6.952;2023-06-05T00:03:39;20.70;8.20
67974;DHT22;54756;51.140;6.952;2023-06-05T00:05:39;20.70;8.30
67974;DHT22;54756;51.140;6.952;2023-06-05T00:07:40;20.70;8.30
67974;DHT22;54756;51.140;6.952;2023-06-05T00:09:41;20.70;8.20
67974;DHT22;54756;51.140;6.952;2023-06-05T00:11:42;20.70;8.00
67974;DHT22;54756;51.140;6.952;2023-06-05T00:13:42;20.70;7.90
67974;DHT22;54756;51.140;6.952;2023-06-05T00:15:43;20.70;8.00
67974;DHT22;54756;51.140;6.952;2023-06-05T00:17:43;20.70;7.90
67974;DHT22;54756;51.140;6.952;2023-06-05T00:19:45;20.60;7.90
67974;DHT22;54756;51.140;6.952;2023-06-05T00:21:46;20.60;7.90
67974;DHT22;54756;51.140;6.952;2023-06-05T00:23:46;20.60;7.90
67974;DHT22;54756;51.140;6.952;2023-06-05T00:25:47;20.60;7.90
67974;DHT22;54756;51.140;6.952;2023-06-05T00:27:47;20.60;7.70
67974;DHT22;54756;51.140;6.952;2023-06-05T00:29:49;20.60;7.70
67974;DHT22;54756;51.140;6.952;2023-06-05T00:31:49;20.60;7.40
67974;DHT22;54756;51.140;6.952;2023-06-05T00:33:50;20.60;7.60
67974;DHT22;54756;51.140;6.952;2023-06-05T00:35:52;20.60;7.70
67974;DHT22;54756;51.140;6.952;2023-06-05T00:37:53;20.60;7.70
67974;DHT22;54756;51.140;6.952;2023-06-05T00:39:53;20.60;7.60
67974;DHT22;54756;51.140;6.952;2023-06-05T00:41:54;20.60;7.50
67974;DHT22;54756;51.140;6.952;2023-06-05T00:43:55;20.60;7.60
67974;DHT22;54756;51.140;6.952;2023-06-05T00:45:59;20.60;7.90
67974;DHT22;54756;51.140;6.952;2023-06-05T00:48:03;20.60;7.90
67974;DHT22;54756;51.140;6.952;2023-06-05T00:50:06;20.60;7.60
67974;DHT22;54756;51.140;6.952;2023-06-05T00:52:07;20.50;7.50
67974;DHT22;54756;51.140;6.952;2023-06-05T00:54:08;20.50;7.50
67974;DHT22;54756;51.140;6.952;2023-06-05T00:56:08;20.50;7.40
67974;DHT22;54756;51.140;6.952;2023-06-05T00:58:09;20.50;7.30
67974;DHT22;54756;51.140;6.952;2023-06-05T01:00:11;20.50;7.30
67974;DHT22;54756;51.140;6.952;2023-06-05T01:02:14;20.50;7.30
67974;DHT22;54756;51.140;6.952;2023-06-05T01:04:15;20.50;7.10
67974;DHT22;54756;51.140;6.952;2023-06-05T01:06:15;20.50;7.10
67974;DHT22;54756;51.140;6.952;2023-06-05T01:08:18;20.50;7.20
67974;DHT22;54756;51.140;6.952;2023-06-05T01:10:25;20.50;7.20
67974;DHT22;54756;51.140;6.952;2023-06-05T01:12:35;20.50;7.20
67974;DHT22;54756;51.140;6.952;2023-06-05T01:14:38;20.50;7.20
67974;DHT22;54756;51.140;6.952;2023-06-05T01:16:40;20.50;7.20
67974;DHT22;54756;51.140;6.952;2023-06-05T01:18:43;20.50;7.20
67974;DHT22;54756;51.140;6.952;2023-06-05T01:20:46;20.50;7.30
67974;DHT22;54756;51.140;6.952;2023-06-05T01:22:49;20.50;7.10
67974;DHT22;54756;51.140;6.952;2023-06-05T01:24:52;20.50;7.10
67974;DHT22;54756;51.140;6.952;2023-06-05T01:29:04;20.40;7.00
67974;DHT22;54756;51.140;6.952;2023-06-05T01:31:09;20.40;7.00
67974;DHT22;54756;51.140;6.952;2023-06-05T01:33:25;20.40;6.90
67974;DHT22;54756;51.140;6.952;2023-06-05T01:35:27;20.40;7.40
67974;DHT22;54756;51.140;6.952;2023-06-05T01:37:30;20.40;7.80
67974;DHT22;54756;51.140;6.952;2023-06-05T01:39:38;20.40;8.00
67974;DHT22;54756;51.140;6.952;2023-06-05T01:41:40;20.40;8.60
67974;DHT22;54756;51.140;6.952;2023-06-05T01:43:42;20.40;8.90
67974;DHT22;54756;51.140;6.952;2023-06-05T01:45:43;20.40;9.70
67974;DHT22;54756;51.140;6.952;2023-06-05T01:47:44;20.40;10.30
67974;DHT22;54756;51.140;6.952;2023-06-05T01:49:48;20.40;10.50
67974;DHT22;54756;51.140;6.952;2023-06-05T01:51:49;20.40;10.30
67974;DHT22;54756;51.140;6.952;2023-06-05T01:53:49;20.40;10.70
67974;DHT22;54756;51.140;6.952;2023-06-05T01:55:50;20.40;10.80
67974;DHT22;54756;51.140;6.952;2023-06-05T01:57:57;20.30;10.70
67974;DHT22;54756;51.140;6.952;2023-06-05T01:59:57;20.30;10.80
67974;DHT22;54756;51.140;6.952;2023-06-05T02:02:01;20.30;11.10
67974;DHT22;54756;51.140;6.952;2023-06-05T02:04:04;20.30;11.20
67974;DHT22;54756;51.140;6.952;2023-06-05T02:06:05;20.30;11.50
67974;DHT22;54756;51.140;6.952;2023-06-05T02:08:06;20.30;11.60
67974;DHT22;54756;51.140;6.952;2023-06-05T02:10:09;20.30;11.70
67974;DHT22;54756;51.140;6.952;2023-06-05T02:12:10;20.30;11.70
67974;DHT22;54756;51.140;6.952;2023-06-05T02:14:14;20.30;11.80
67974;DHT22;54756;51.140;6.952;2023-06-05T02:16:15;20.30;11.90
67974;DHT22;54756;51.140;6.952;2023-06-05T02:18:17;20.30;11.90
67974;DHT22;54756;51.140;6.952;2023-06-05T02:20:23;20.30;11.90
67974;DHT22;54756;51.140;6.952;2023-06-05T02:22:24;20.30;12.10
67974;DHT22;54756;51.140;6.952;2023-06-05T02:24:24;20.30;12.10
67974;DHT22;54756;51.140;6.952;2023-06-05T02:26:28;20.30;11.90
67974;DHT22;54756;51.140;6.952;2023-06-05T02:28:28;20.20;12.00
67974;DHT22;54756;51.140;6.952;2023-06-05T02:30:29;20.20;12.30
67974;DHT22;54756;51.140;6.952;2023-06-05T02:32:29;20.20;12.10
67974;DHT22;54756;51.140;6.952;2023-06-05T02:34:32;20.20;12.20
67974;DHT22;54756;51.140;6.952;2023-06-05T02:36:35;20.20;12.20
67974;DHT22;54756;51.140;6.952;2023-06-05T02:38:36;20.20;12.30
67974;DHT22;54756;51.140;6.952;2023-06-05T02:40:38;20.20;12.10
67974;DHT22;54756;51.140;6.952;2023-06-05T02:42:39;20.20;12.10
67974;DHT22;54756;51.140;6.952;2023-06-05T02:44:40;20.10;12.10
67974;DHT22;54756;51.140;6.952;2023-06-05T02:46:41;20.10;12.30
67974;DHT22;54756;51.140;6.952;2023-06-05T02:48:41;20.10;12.40
67974;DHT22;54756;51.140;6.952;2023-06-05T02:50:42;20.10;12.40
67974;DHT22;54756;51.140;6.952;2023-06-05T02:52:43;20.10;12.60
67974;DHT22;54756;51.140;6.952;2023-06-05T02:54:43;20.10;12.70
67974;DHT22;54756;51.140;6.952;2023-06-05T02:56:44;20.10;12.70
67974;DHT22;54756;51.140;6.952;2023-06-05T02:58:45;20.10;13.30
67974;DHT22;54756;51.140;6.952;2023-06-05T03:00:45;20.10;12.60
67974;DHT22;54756;51.140;6.952;2023-06-05T03:02:46;20.10;12.60
67974;DHT22;54756;51.140;6.952;2023-06-05T03:04:49;20.10;12.60
67974;DHT22;54756;51.140;6.952;2023-06-05T03:06:53;20.00;12.30
67974;DHT22;54756;51.140;6.952;2023-06-05T03:08:57;20.00;12.20
67974;DHT22;54756;51.140;6.952;2023-06-05T03:10:57;20.00;12.10
67974;DHT22;54756;51.140;6.952;2023-06-05T03:12:58;20.00;12.00
67974;DHT22;54756;51.140;6.952;2023-06-05T03:14:59;20.00;12.00
67974;DHT22;54756;51.140;6.952;2023-06-05T03:17:01;20.00;12.10
67974;DHT22;54756;51.140;6.952;2023-06-05T03:19:01;20.00;12.10
67974;DHT22;54756;51.140;6.952;2023-06-05T03:21:02;20.00;11.90
67974;DHT22;54756;51.140;6.952;2023-06-05T03:23:02;20.00;12.00
67974;DHT22;54756;51.140;6.952;2023-06-05T03:25:03;20.00;11.90
67974;DHT22;54756;51.140;6.952;2023-06-05T03:27:04;20.00;12.00
67974;DHT22;54756;51.140;6.952;2023-06-05T03:29:05;20.00;12.00
67974;DHT22;54756;51.140;6.952;2023-06-05T03:31:05;20.00;11.80
67974;DHT22;54756;51.140;6.952;2023-06-05T03:33:06;19.90;11.70
67974;DHT22;54756;51.140;6.952;2023-06-05T03:35:07;19.90;11.80
67974;DHT22;54756;51.140;6.952;2023-06-05T03:37:07;19.90;11.90
67974;DHT22;54756;51.140;6.952;2023-06-05T03:39:08;19.90;11.90
67974;DHT22;54756;51.140;6.952;2023-06-05T03:41:09;19.90;12.10
67974;DHT22;54756;51.140;6.952;2023-06-05T03:43:09;19.90;12.20
67974;DHT22;54756;51.140;6.952;2023-06-05T03:45:12;19.90;12.40
67974;DHT22;54756;51.140;6.952;2023-06-05T03:47:14;19.90;12.50
67974;DHT22;54756;51.140;6.952;2023-06-05T03:49:15;19.80;12.60
67974;DHT22;54756;51.140;6.952;2023-06-05T03:51:16;19.80;12.70
67974;DHT22;54756;51.140;6.952;2023-06-05T03:53:19;19.80;12.80
67974;DHT22;54756;51.140;6.952;2023-06-05T03:55:20;19.80;12.80
67974;DHT22;54756;51.140;6.952;2023-06-05T03:57:21;19.80;12.70
67974;DHT22;54756;51.140;6.952;2023-06-05T03:59:22;19.80;12.80
67974;DHT22;54756;51.140;6.952;2023-06-05T04:01:24;19.80;12.90
67974;DHT22;54756;51.140;6.952;2023-06-05T04:03:24;19.80;13.10
67974;DHT22;54756;51.140;6.952;2023-06-05T04:05:25;19.80;13.00
67974;DHT22;54756;51.140;6.952;2023-06-05T04:07:26;19.80;13.10
67974;DHT22;54756;51.140;6.952;2023-06-05T04:09:26;19.80;13.10
67974;DHT22;54756;51.140;6.952;2023-06-05T04:11:27;19.80;13.00
67974;DHT22;54756;51.140;6.952;2023-06-05T04:13:27;19.80;13.00
67974;DHT22;54756;51.140;6.952;2023-06-05T04:15:29;19.70;13.00
67974;DHT22;54756;51.140;6.952;2023-06-05T04:17:29;19.70;12.90
67974;DHT22;54756;51.140;6.952;2023-06-05T04:19:30;19.70;12.70
67974;DHT22;54756;51.140;6.952;2023-06-05T04:21:32;19.70;12.70
67974;DHT22;54756;51.140;6.952;2023-06-05T04:23:33;19.80;12.80
67974;DHT22;54756;51.140;6.952;2023-06-05T04:25:34;19.70;12.70
67974;DHT22;54756;51.140;6.952;2023-06-05T04:27:34;19.70;12.70
67974;DHT22;54756;51.140;6.952;2023-06-05T04:29:35;19.70;12.60
67974;DHT22;54756;51.140;6.952;2023-06-05T04:31:36;19.70;12.70
67974;DHT22;54756;51.140;6.952;2023-06-05T04:33:41;19.70;12.50
67974;DHT22;54756;51.140;6.952;2023-06-05T04:35:41;19.70;12.60
67974;DHT22;54756;51.140;6.952;2023-06-05T04:37:42;19.70;12.60
67974;DHT22;54756;51.140;6.952;2023-06-05T04:39:42;19.70;12.40
67974;DHT22;54756;51.140;6.952;2023-06-05T04:41:45;19.60;12.30
67974;DHT22;54756;51.140;6.952;2023-06-05T04:43:46;19.60;12.40
67974;DHT22;54756;51.140;6.952;2023-06-05T04:45:46;19.60;12.50
67974;DHT22;54756;51.140;6.952;2023-06-05T04:47:48;19.70;12.50
67974;DHT22;54756;51.140;6.952;2023-06-05T04:49:48;19.70;12.50
67974;DHT22;54756;51.140;6.952;2023-06-05T04:51:52;19.60;12.40
67974;DHT22;54756;51.140;6.952;2023-06-05T04:53:53;19.60;12.40
67974;DHT22;54756;51.140;6.952;2023-06-05T04:55:54;19.60;12.50
67974;DHT22;54756;51.140;6.952;2023-06-05T04:57:55;19.60;12.90
67974;DHT22;54756;51.140;6.952;2023-06-05T05:00:00;19.60;13.00
67974;DHT22;54756;51.140;6.952;2023-06-05T05:02:04;19.50;12.90
67974;DHT22;54756;51.140;6.952;2023-06-05T05:04:05;19.50;12.80
67974;DHT22;54756;51.140;6.952;2023-06-05T05:06:05;19.50;12.70
67974;DHT22;54756;51.140;6.952;2023-06-05T05:08:06;19.50;12.70
67974;DHT22;54756;51.140;6.952;2023-06-05T05:10:08;19.60;12.90
67974;DHT22;54756;51.140;6.952;2023-06-05T05:12:09;19.50;12.70
67974;DHT22;54756;51.140;6.952;2023-06-05T05:14:10;19.50;12.80
67974;DHT22;54756;51.140;6.952;2023-06-05T05:16:11;19.50;12.90
67974;DHT22;54756;51.140;6.952;2023-06-05T05:18:11;19.50;13.00
67974;DHT22;54756;51.140;6.952;2023-06-05T05:20:12;19.50;13.00
67974;DHT22;54756;51.140;6.952;2023-06-05T05:22:12;19.50;13.20
67974;DHT22;54756;51.140;6.952;2023-06-05T05:24:13;19.50;13.40
67974;DHT22;54756;51.140;6.952;2023-06-05T05:26:14;19.50;13.30
67974;DHT22;54756;51.140;6.952;2023-06-05T05:28:14;19.50;13.30
67974;DHT22;54756;51.140;6.952;2023-06-05T05:30:15;19.50;13.40
67974;DHT22;54756;51.140;6.952;2023-06-05T05:32:15;19.50;13.10
67974;DHT22;54756;51.140;6.952;2023-06-05T05:34:16;19.50;13.20
67974;DHT22;54756;51.140;6.952;2023-06-05T05:36:17;19.50;13.20
67974;DHT22;54756;51.140;6.952;2023-06-05T05:38:18;19.40;13.20
67974;DHT22;54756;51.140;6.952;2023-06-05T05:40:19;19.40;13.20
67974;DHT22;54756;51.140;6.952;2023-06-05T05:42:19;19.40;12.90
67974;DHT22;54756;51.140;6.952;2023-06-05T05:44:20;19.40;12.20
67974;DHT22;54756;51.140;6.952;2023-06-05T05:46:20;19.40;12.40
67974;DHT22;54756;51.140;6.952;2023-06-05T05:48:21;19.40;12.60
67974;DHT22;54756;51.140;6.952;2023-06-05T05:50:23;19.40;13.00
67974;DHT22;54756;51.140;6.952;2023-06-05T05:52:23;19.50;13.30
67974;DHT22;54756;51.140;6.952;2023-06-05T05:54:24;19.40;13.10
67974;DHT22;54756;51.140;6.952;2023-06-05T05:56:27;19.40;13.00
67974;DHT22;54756;51.140;6.952;2023-06-05T05:58:28;19.40;12.40
67974;DHT22;54756;51.140;6.952;2023-06-05T06:00:28;19.40;11.50
67974;DHT22;54756;51.140;6.952;2023-06-05T06:02:29;19.50;11.90
67974;DHT22;54756;51.140;6.952;2023-06-05T06:04:30;19.40;12.50
67974;DHT22;54756;51.140;6.952;2023-06-05T06:06:30;19.40;12.80
67974;DHT22;54756;51.140;6.952;2023-06-05T06:08:31;19.40;13.20
67974;DHT22;54756;51.140;6.952;2023-06-05T06:10:33;19.50;13.50
67974;DHT22;54756;51.140;6.952;2023-06-05T06:12:34;19.40;14.10
67974;DHT22;54756;51.140;6.952;2023-06-05T06:14:35;19.50;14.40
67974;DHT22;54756;51.140;6.952;2023-06-05T06:16:39;19.40;14.20
67974;DHT22;54756;51.140;6.952;2023-06-05T06:18:40;19.40;13.90
67974;DHT22;54756;51.140;6.952;2023-06-05T06:20:42;19.40;14.20
67974;DHT22;54756;51.140;6.952;2023-06-05T06:22:42;19.40;14.50
67974;DHT22;54756;51.140;6.952;2023-06-05T06:24:43;19.40;14.70
67974;DHT22;54756;51.140;6.952;2023-06-05T06:26:43;19.40;14.00
67974;DHT22;54756;51.140;6.952;2023-06-05T06:28:44;19.40;13.40
67974;DHT22;54756;51.140;6.952;2023-06-05T06:30:45;19.40;13.50
67974;DHT22;54756;51.140;6.952;2023-06-05T06:32:46;19.40;14.00
67974;DHT22;54756;51.140;6.952;2023-06-05T06:34:46;19.40;14.30
67974;DHT22;54756;51.140;6.952;2023-06-05T06:36:47;19.40;14.70
67974;DHT22;54756;51.140;6.952;2023-06-05T06:38:47;19.40;15.00
67974;DHT22;54756;51.140;6.952;2023-06-05T06:40:48;19.40;15.40
67974;DHT22;54756;51.140;6.952;2023-06-05T06:42:49;19.40;15.50
67974;DHT22;54756;51.140;6.952;2023-06-05T06:44:51;19.40;15.70
67974;DHT22;54756;51.140;6.952;2023-06-05T06:46:56;19.40;15.90
67974;DHT22;54756;51.140;6.952;2023-06-05T06:48:57;19.40;16.20
67974;DHT22;54756;51.140;6.952;2023-06-05T06:50:57;19.40;16.20
67974;DHT22;54756;51.140;6.952;2023-06-05T06:52:58;19.40;16.40
67974;DHT22;54756;51.140;6.952;2023-06-05T06:54:59;19.40;16.70
67974;DHT22;54756;51.140;6.952;2023-06-05T06:57:00;19.40;16.10
67974;DHT22;54756;51.140;6.952;2023-06-05T06:59:01;19.50;16.30
67974;DHT22;54756;51.140;6.952;2023-06-05T07:01:04;19.40;16.50
67974;DHT22;54756;51.140;6.952;2023-06-05T07:03:05;19.40;16.70
67974;DHT22;54756;51.140;6.952;2023-06-05T07:05:05;19.40;16.00
67974;DHT22;54756;51.140;6.952;2023-06-05T07:07:08;19.50;15.30
67974;DHT22;54756;51.140;6.952;2023-06-05T07:09:10;19.40;14.70
67974;DHT22;54756;51.140;6.952;2023-06-05T07:11:11;19.40;14.80
67974;DHT22;54756;51.140;6.952;2023-06-05T07:13:11;19.40;14.70
67974;DHT22;54756;51.140;6.952;2023-06-05T07:15:12;19.40;15.00
67974;DHT22;54756;51.140;6.952;2023-06-05T07:17:13;19.40;15.20
67974;DHT22;54756;51.140;6.952;2023-06-05T07:19:14;19.50;15.30
67974;DHT22;54756;51.140;6.952;2023-06-05T07:21:15;19.40;15.30
67974;DHT22;54756;51.140;6.952;2023-06-05T07:23:16;19.40;15.30
67974;DHT22;54756;51.140;6.952;2023-06-05T07:25:18;19.40;15.10
67974;DHT22;54756;51.140;6.952;2023-06-05T07:27:21;19.50;15.30
67974;DHT22;54756;51.140;6.952;2023-06-05T07:29:23;19.40;15.30
67974;DHT22;54756;51.140;6.952;2023-06-05T07:31:24;19.50;15.10
67974;DHT22;54756;51.140;6.952;2023-06-05T07:33:24;19.40;14.80
67974;DHT22;54756;51.140;6.952;2023-06-05T07:35:25;19.40;14.60
67974;DHT22;54756;51.140;6.952;2023-06-05T07:37:25;19.40;14.60
67974;DHT22;54756;51.140;6.952;2023-06-05T07:39:26;19.50;15.10
67974;DHT22;54756;51.140;6.952;2023-06-05T07:41:27;19.50;14.50
67974;DHT22;54756;51.140;6.952;2023-06-05T07:43:27;19.50;14.30
67974;DHT22;54756;51.140;6.952;2023-06-05T07:45:28;19.40;14.40
67974;DHT22;54756;51.140;6.952;2023-06-05T07:47:29;19.50;14.40
67974;DHT22;54756;51.140;6.952;2023-06-05T07:49:30;19.50;14.30
67974;DHT22;54756;51.140;6.952;2023-06-05T07:51:32;19.50;14.40
67974;DHT22;54756;51.140;6.952;2023-06-05T07:53:40;19.50;14.40
67974;DHT22;54756;51.140;6.952;2023-06-05T07:55:40;19.50;14.50
67974;DHT22;54756;51.140;6.952;2023-06-05T07:57:41;19.50;14.60
67974;DHT22;54756;51.140;6.952;2023-06-05T07:59:42;19.50;14.70
67974;DHT22;54756;51.140;6.952;2023-06-05T08:01:43;19.50;14.50
67974;DHT22;54756;51.140;6.952;2023-06-05T08:03:45;19.50;14.50
67974;DHT22;54756;51.140;6.952;2023-06-05T08:05:49;19.50;14.60
67974;DHT22;54756;51.140;6.952;2023-06-05T08:07:53;19.50;14.60
67974;DHT22;54756;51.140;6.952;2023-06-05T08:09:53;19.50;14.50
67974;DHT22;54756;51.140;6.952;2023-06-05T08:11:54;19.50;14.60
67974;DHT22;54756;51.140;6.952;2023-06-05T08:13:55;19.50;14.40
67974;DHT22;54756;51.140;6.952;2023-06-05T08:15:56;19.50;14.40
67974;DHT22;54756;51.140;6.952;2023-06-05T08:17:56;19.50;14.40
67974;DHT22;54756;51.140;6.952;2023-06-05T08:19:57;19.50;14.50
67974;DHT22;54756;51.140;6.952;2023-06-05T08:21:57;19.50;14.60
67974;DHT22;54756;51.140;6.952;2023-06-05T08:23:58;19.50;14.60
67974;DHT22;54756;51.140;6.952;2023-06-05T08:25:59;19.50;14.70
67974;DHT22;54756;51.140;6.952;2023-06-05T08:27:59;19.50;14.70
67974;DHT22;54756;51.140;6.952;2023-06-05T08:30:00;19.50;14.90
67974;DHT22;54756;51.140;6.952;2023-06-05T08:32:02;19.50;14.70
67974;DHT22;54756;51.140;6.952;2023-06-05T08:34:04;19.50;14.80
67974;DHT22;54756;51.140;6.952;2023-06-05T08:36:05;19.50;14.90
67974;DHT22;54756;51.140;6.952;2023-06-05T08:38:07;19.60;14.90
67974;DHT22;54756;51.140;6.952;2023-06-05T08:40:08;19.50;14.70
67974;DHT22;54756;51.140;6.952;2023-06-05T08:42:11;19.50;14.70
67974;DHT22;54756;51.140;6.952;2023-06-05T08:44:15;19.50;14.70
67974;DHT22;54756;51.140;6.952;2023-06-05T08:46:16;19.60;14.80
67974;DHT22;54756;51.140;6.952;2023-06-05T08:48:17;19.60;14.80
67974;DHT22;54756;51.140;6.952;2023-06-05T08:50:18;19.60;14.80
67974;DHT22;54756;51.140;6.952;2023-06-05T08:52:20;19.60;14.90
67974;DHT22;54756;51.140;6.952;2023-06-05T08:54:22;19.60;14.90
67974;DHT22;54756;51.140;6.952;2023-06-05T08:56:23;19.60;15.00
67974;DHT22;54756;51.140;6.952;2023-06-05T08:58:24;19.60;15.00
67974;DHT22;54756;51.140;6.952;2023-06-05T09:00:25;19.60;15.00
67974;DHT22;54756;51.140;6.952;2023-06-05T09:02:26;19.60;15.10
67974;DHT22;54756;51.140;6.952;2023-06-05T09:04:26;19.60;15.20
67974;DHT22;54756;51.140;6.952;2023-06-05T09:06:30;19.60;15.30
67974;DHT22;54756;51.140;6.952;2023-06-05T09:08:34;19.60;15.30
67974;DHT22;54756;51.140;6.952;2023-06-05T09:10:34;19.60;15.30
67974;DHT22;54756;51.140;6.952;2023-06-05T09:12:56;19.60;15.40
67974;DHT22;54756;51.140;6.952;2023-06-05T09:14:57;19.60;15.50
67974;DHT22;54756;51.140;6.952;2023-06-05T09:16:57;19.60;15.40
67974;DHT22;54756;51.140;6.952;2023-06-05T09:18:58;19.60;15.40
67974;DHT22;54756;51.140;6.952;2023-06-05T09:21:11;19.60;15.40
67974;DHT22;54756;51.140;6.952;2023-06-05T09:23:24;19.60;15.40
67974;DHT22;54756;51.140;6.952;2023-06-05T09:25:43;19.60;15.40
67974;DHT22;54756;51.140;6.952;2023-06-05T09:28:05;19.70;15.40
67974;DHT22;54756;51.140;6.952;2023-06-05T09:30:07;19.70;15.30
67974;DHT22;54756;51.140;6.952;2023-06-05T09:32:16;19.70;15.10
67974;DHT22;54756;51.140;6.952;2023-06-05T09:34:36;19.70;15.10
67974;DHT22;54756;51.140;6.952;2023-06-05T09:37:02;19.70;15.10
67974;DHT22;54756;51.140;6.952;2023-06-05T09:39:21;19.70;15.00
67974;DHT22;54756;51.140;6.952;2023-06-05T09:41:22;19.70;14.90
67974;DHT22;54756;51.140;6.952;2023-06-05T09:43:23;19.70;14.80
67974;DHT22;54756;51.140;6.952;2023-06-05T09:45:41;19.70;14.80
67974;DHT22;54756;51.140;6.952;2023-06-05T09:47:41;19.70;14.80
67974;DHT22;54756;51.140;6.952;2023-06-05T09:51:43;19.70;14.70
67974;DHT22;54756;51.140;6.952;2023-06-05T09:53:46;19.70;14.70
67974;DHT22;54756;51.140;6.952;2023-06-05T09:55:47;19.80;14.60
67974;DHT22;54756;51.140;6.952;2023-06-05T09:57:48;19.70;14.50
67974;DHT22;54756;51.140;6.952;2023-06-05T09:59:51;19.70;14.40
67974;DHT22;54756;51.140;6.952;2023-06-05T10:01:54;19.80;14.50
67974;DHT22;54756;51.140;6.952;2023-06-05T10:04:05;19.80;14.40
67974;DHT22;54756;51.140;6.952;2023-06-05T10:06:06;19.80;14.50
67974;DHT22;54756;51.140;6.952;2023-06-05T10:08:08;19.80;14.50
67974;DHT22;54756;51.140;6.952;2023-06-05T10:10:09;19.80;14.60
67974;DHT22;54756;51.140;6.952;2023-06-05T10:12:10;19.80;15.10
67974;DHT22;54756;51.140;6.952;2023-06-05T10:14:11;19.80;14.70
67974;DHT22;54756;51.140;6.952;2023-06-05T10:16:12;19.80;14.80
67974;DHT22;54756;51.140;6.952;2023-06-05T10:18:13;19.80;14.80
67974;DHT22;54756;51.140;6.952;2023-06-05T10:20:14;19.80;14.90
67974;DHT22;54756;51.140;6.952;2023-06-05T10:22:17;19.80;15.00
67974;DHT22;54756;51.140;6.952;2023-06-05T10:24:24;19.80;15.10
67974;DHT22;54756;51.140;6.952;2023-06-05T10:31:43;19.90;15.40
67974;DHT22;54756;51.140;6.952;2023-06-05T10:34:04;19.90;15.60
67974;DHT22;54756;51.140;6.952;2023-06-05T10:38:40;19.90;15.80
67974;DHT22;54756;51.140;6.952;2023-06-05T10:40:41;19.90;15.80
67974;DHT22;54756;51.140;6.952;2023-06-05T10:42:42;19.90;15.90
67974;DHT22;54756;51.140;6.952;2023-06-05T10:44:42;19.90;16.00
67974;DHT22;54756;51.140;6.952;2023-06-05T10:46:43;19.90;16.20
67974;DHT22;54756;51.140;6.952;2023-06-05T10:53:47;19.90;16.40
67974;DHT22;54756;51.140;6.952;2023-06-05T10:55:47;20.00;16.50
67974;DHT22;54756;51.140;6.952;2023-06-05T10:58:08;20.00;16.50
67974;DHT22;54756;51.140;6.952;2023-06-05T11:00:09;20.00;16.70
67974;DHT22;54756;51.140;6.952;2023-06-05T11:04:15;20.00;16.60
67974;DHT22;54756;51.140;6.952;2023-06-05T11:06:17;20.00;16.70
67974;DHT22;54756;51.140;6.952;2023-06-05T11:08:17;20.00;16.70
67974;DHT22;54756;51.140;6.952;2023-06-05T11:10:20;20.00;16.80
67974;DHT22;54756;51.140;6.952;2023-06-05T11:12:21;20.00;16.90
67974;DHT22;54756;51.140;6.952;2023-06-05T11:14:21;20.00;16.90
67974;DHT22;54756;51.140;6.952;2023-06-05T11:16:26;20.00;17.00
67974;DHT22;54756;51.140;6.952;2023-06-05T11:18:28;20.10;17.20
67974;DHT22;54756;51.140;6.952;2023-06-05T11:20:50;20.10;17.20
67974;DHT22;54756;51.140;6.952;2023-06-05T11:27:41;20.10;17.60
67974;DHT22;54756;51.140;6.952;2023-06-05T11:29:42;20.10;17.60
67974;DHT22;54756;51.140;6.952;2023-06-05T11:31:44;20.10;17.60
67974;DHT22;54756;51.140;6.952;2023-06-05T11:33:45;20.10;17.70
67974;DHT22;54756;51.140;6.952;2023-06-05T11:35:48;20.10;17.90
67974;DHT22;54756;51.140;6.952;2023-06-05T11:37:49;20.10;18.00
67974;DHT22;54756;51.140;6.952;2023-06-05T11:40:08;20.10;18.00
67974;DHT22;54756;51.140;6.952;2023-06-05T11:42:09;20.20;18.10
67974;DHT22;54756;51.140;6.952;2023-06-05T11:44:10;20.20;18.10
67974;DHT22;54756;51.140;6.952;2023-06-05T11:46:10;20.20;18.00
67974;DHT22;54756;51.140;6.952;2023-06-05T11:48:12;20.20;18.00
67974;DHT22;54756;51.140;6.952;2023-06-05T11:50:14;20.20;18.10
67974;DHT22;54756;51.140;6.952;2023-06-05T11:52:20;20.20;18.20
67974;DHT22;54756;51.140;6.952;2023-06-05T11:54:29;20.20;18.30
67974;DHT22;54756;51.140;6.952;2023-06-05T11:56:31;20.20;18.40
67974;DHT22;54756;51.140;6.952;2023-06-05T11:58:37;20.20;18.30
67974;DHT22;54756;51.140;6.952;2023-06-05T12:00:37;20.20;18.40
67974;DHT22;54756;51.140;6.952;2023-06-05T12:02:39;20.20;18.30
67974;DHT22;54756;51.140;6.952;2023-06-05T12:04:42;20.30;18.40
67974;DHT22;54756;51.140;6.952;2023-06-05T12:06:45;20.30;18.40
67974;DHT22;54756;51.140;6.952;2023-06-05T12:08:49;20.30;18.50
67974;DHT22;54756;51.140;6.952;2023-06-05T12:10:49;20.30;18.50
67974;DHT22;54756;51.140;6.952;2023-06-05T12:12:51;20.30;18.60
67974;DHT22;54756;51.140;6.952;2023-06-05T12:14:52;20.30;18.30
67974;DHT22;54756;51.140;6.952;2023-06-05T12:16:54;20.30;17.80
67974;DHT22;54756;51.140;6.952;2023-06-05T12:18:55;20.30;17.60
67974;DHT22;54756;51.140;6.952;2023-06-05T12:20:56;20.30;17.10
67974;DHT22;54756;51.140;6.952;2023-06-05T12:22:56;20.40;16.70
67974;DHT22;54756;51.140;6.952;2023-06-05T12:25:20;20.40;16.60
67974;DHT22;54756;51.140;6.952;2023-06-05T12:27:29;20.40;16.60
67974;DHT22;54756;51.140;6.952;2023-06-05T12:29:37;20.50;16.60
67974;DHT22;54756;51.140;6.952;2023-06-05T12:31:41;20.50;16.70
67974;DHT22;54756;51.140;6.952;2023-06-05T12:33:49;20.50;16.70
67974;DHT22;54756;51.140;6.952;2023-06-05T12:36:03;20.60;16.70
67974;DHT22;54756;51.140;6.952;2023-06-05T12:38:03;20.60;16.70
67974;DHT22;54756;51.140;6.952;2023-06-05T12:40:05;20.60;16.50
67974;DHT22;54756;51.140;6.952;2023-06-05T12:42:09;20.70;16.50
67974;DHT22;54756;51.140;6.952;2023-06-05T12:44:10;20.70;16.30
67974;DHT22;54756;51.140;6.952;2023-06-05T12:46:10;20.70;16.10
67974;DHT22;54756;51.140;6.952;2023-06-05T12:48:12;20.80;16.10
67974;DHT22;54756;51.140;6.952;2023-06-05T12:50:13;20.80;16.10
67974;DHT22;54756;51.140;6.952;2023-06-05T12:52:13;20.80;16.10
67974;DHT22;54756;51.140;6.952;2023-06-05T12:54:14;20.80;16.00
67974;DHT22;54756;51.140;6.952;2023-06-05T12:56:18;20.90;15.90
67974;DHT22;54756;51.140;6.952;2023-06-05T12:58:19;20.90;15.80
67974;DHT22;54756;51.140;6.952;2023-06-05T13:00:20;20.90;15.80
67974;DHT22;54756;51.140;6.952;2023-06-05T13:02:21;21.00;15.70
67974;DHT22;54756;51.140;6.952;2023-06-05T13:04:22;21.00;15.70
67974;DHT22;54756;51.140;6.952;2023-06-05T13:06:22;21.00;15.60
67974;DHT22;54756;51.140;6.952;2023-06-05T13:08:23;21.00;15.30
67974;DHT22;54756;51.140;6.952;2023-06-05T13:10:24;21.00;15.00
67974;DHT22;54756;51.140;6.952;2023-06-05T13:12:25;21.10;14.80
67974;DHT22;54756;51.140;6.952;2023-06-05T13:14:26;21.10;14.70
67974;DHT22;54756;51.140;6.952;2023-06-05T13:16:26;21.10;14.60
67974;DHT22;54756;51.140;6.952;2023-06-05T13:18:27;21.10;14.50